Time;durP1;ratioP1;P1;durP2;ratioP2;P2;SDS_P1;SDS_P2;PMS_P1;PMS_P2;Temp;Humidity;BMP_temperature;BMP_pressure;BME280_temperature;BME280_humidity;BME280_pressure;Samples;Min_cycle;Max_cycle;Signal;HPM_P1;HPM_P2
2023/05/19 00:00:47;;;;;;;5.53;2.70;;;;;;;;;;5079355;28;20535;-74
2023/05/19 00:03:22;;;;;;;10.48;2.20;;;;;;;;;;5079484;28;20017;-74
2023/05/19 00:05:50;;;;;;;7.97;2.67;;;;;;;;;;5079692;28;20492;-74
2023/05/19 00:08:17;;;;;;;9.98;2.80;;;11.40;99.90;;;;;;5078148;28;20363;-74
2023/05/19 00:10:43;;;;;;;12.07;3.20;;;11.40;99.90;;;;;;5073266;28;20505;-74
2023/05/19 00:13:09;;;;;;;6.07;2.40;;;11.40;99.90;;;;;;5051415;28;20033;-74
2023/05/19 00:15:35;;;;;;;8.70;2.55;;;11.40;99.90;;;;;;5071075;28;20363;-74
2023/05/19 00:18:00;;;;;;;6.50;2.63;;;11.20;99.90;;;;;;5073639;28;20046;-74
2023/05/19 00:20:26;;;;;;;7.88;2.72;;;11.20;99.90;;;;;;5073985;28;20025;-74
2023/05/19 00:22:52;;;;;;;9.25;2.65;;;11.20;99.90;;;;;;5070602;28;20097;-73
2023/05/19 00:25:17;;;;;;;6.47;2.50;;;11.20;99.90;;;;;;5072799;28;20039;-74
2023/05/19 00:27:43;;;;;;;4.38;2.70;;;11.20;99.90;;;;;;5071410;28;20389;-74
2023/05/19 00:30:08;;;;;;;7.60;2.78;;;11.10;99.90;;;;;;5050763;28;20546;-74
2023/05/19 00:32:34;;;;;;;6.10;2.40;;;11.20;99.90;;;;;;5061205;28;20036;-75
2023/05/19 00:35:00;;;;;;;5.15;2.60;;;11.10;99.90;;;;;;5068240;28;20032;-75
2023/05/19 00:37:26;;;;;;;5.60;2.45;;;11.20;99.90;;;;;;5069354;28;20520;-74
2023/05/19 00:39:52;;;;;;;9.73;3.40;;;11.10;99.90;;;;;;5065625;28;20036;-75
2023/05/19 00:42:18;;;;;;;6.53;2.60;;;11.10;99.90;;;;;;5060308;28;20111;-75
2023/05/19 00:44:44;;;;;;;8.73;3.03;;;11.10;99.90;;;;;;5064194;28;20041;-74
2023/05/19 00:47:10;;;;;;;8.25;2.90;;;11.10;99.90;;;;;;5064277;28;20025;-74
2023/05/19 00:49:35;;;;;;;7.75;3.00;;;11.10;99.90;;;;;;5065516;28;20122;-75
2023/05/19 00:52:01;;;;;;;9.23;3.50;;;11.10;99.90;;;;;;5068743;28;20027;-75
2023/05/19 00:54:30;;;;;;;6.70;2.20;;;11.10;99.90;;;;;;5071477;28;20029;-75
2023/05/19 00:56:57;;;;;;;7.07;2.55;;;11.10;99.90;;;;;;5071546;28;20047;-74
2023/05/19 00:59:22;;;;;;;6.22;2.33;;;11.00;99.90;;;;;;5056339;28;20550;-74
2023/05/19 01:01:48;;;;;;;5.45;2.75;;;11.00;99.90;;;;;;5066109;28;20139;-75
2023/05/19 01:04:24;;;;;;;6.25;2.30;;;11.00;99.90;;;;;;5072172;28;20103;-74
2023/05/19 01:06:53;;;;;;;6.97;2.45;;;11.00;99.90;;;;;;5063858;28;20021;-75
2023/05/19 01:09:22;;;;;;;6.17;2.87;;;11.00;99.90;;;;;;5051158;28;20028;-74
2023/05/19 01:11:50;;;;;;;6.15;2.70;;;;;;;;;;5060691;28;20344;-74
2023/05/19 01:14:17;;;;;;;6.47;2.80;;;10.90;99.90;;;;;;5070049;28;20420;-73
2023/05/19 01:16:49;;;;;;;9.98;3.60;;;10.90;99.90;;;;;;5053398;28;20090;-73
2023/05/19 01:19:24;;;;;;;5.72;2.22;;;10.90;99.90;;;;;;5068680;28;20029;-74
2023/05/19 01:22:13;;;;;;;6.90;1.90;;;10.90;99.90;;;;;;5062444;28;20114;-74
2023/05/19 01:25:03;;;;;;;8.23;2.67;;;10.90;99.90;;;;;;5069810;28;20032;-74
2023/05/19 01:28:05;;;;;;;5.70;2.63;;;10.90;99.90;;;;;;5061496;28;20028;-74
2023/05/19 01:30:39;;;;;;;9.80;2.70;;;11.00;99.90;;;;;;5063252;28;20051;-74
2023/05/19 01:33:08;;;;;;;9.82;2.55;;;10.90;99.90;;;;;;5067739;28;20028;-73
2023/05/19 01:35:36;;;;;;;9.15;2.83;;;10.90;99.90;;;;;;5068512;28;20044;-74
2023/05/19 01:38:03;;;;;;;4.97;2.60;;;11.00;99.90;;;;;;5070404;28;20050;-74
2023/05/19 01:40:29;;;;;;;8.38;2.90;;;10.90;99.90;;;;;;5041300;28;20033;-74
2023/05/19 01:42:58;;;;;;;7.43;2.40;;;10.90;99.90;;;;;;5061589;28;20043;-74
2023/05/19 01:45:25;;;;;;;6.88;2.15;;;10.90;99.90;;;;;;5069725;28;20393;-74
2023/05/19 01:47:55;;;;;;;7.72;2.60;;;10.80;99.90;;;;;;5066640;28;20847;-74
2023/05/19 01:50:21;;;;;;;3.58;2.20;;;10.90;99.90;;;;;;5078145;28;20477;-73
2023/05/19 01:52:47;;;;;;;5.82;2.42;;;10.90;99.90;;;;;;5071471;28;20029;-74
2023/05/19 01:55:13;;;;;;;5.45;2.28;;;10.80;99.90;;;;;;5074155;28;20021;-73
2023/05/19 01:57:50;;;;;;;6.15;2.28;;;10.80;99.90;;;;;;5071083;28;20056;-76
2023/05/19 02:00:55;;;;;;;7.65;2.60;;;10.80;99.90;;;;;;5068719;28;20025;-73
2023/05/19 02:03:48;;;;;;;7.15;2.60;;;10.80;99.90;;;;;;5069201;28;20040;-72
2023/05/19 02:06:21;;;;;;;4.60;2.15;;;10.80;99.90;;;;;;5067567;28;20107;-72
2023/05/19 02:08:57;;;;;;;9.52;2.90;;;;;;;;;;5070993;28;20662;-73
2023/05/19 02:11:46;;;;;;;8.88;3.45;;;;;;;;;;5068384;28;20051;-72
2023/05/19 02:14:17;;;;;;;6.70;2.25;;;;;;;;;;5071817;28;20025;-75
2023/05/19 02:16:45;;;;;;;6.60;2.75;;;;;;;;;;5071086;28;20078;-73
2023/05/19 02:19:28;;;;;;;8.93;2.55;;;;;;;;;;5075669;28;20044;-72
2023/05/19 02:21:55;;;;;;;7.15;2.30;;;;;;;;;;5064004;28;20033;-73
2023/05/19 02:24:21;;;;;;;9.27;2.85;;;;;;;;;;5070701;28;20136;-73
2023/05/19 02:26:47;;;;;;;8.93;2.63;;;;;;;;;;5068966;28;20025;-73
2023/05/19 02:29:13;;;;;;;8.25;2.45;;;;;;;;;;5068046;28;20028;-73
2023/05/19 02:31:39;;;;;;;7.85;2.30;;;;;;;;;;5063814;28;20128;-73
2023/05/19 02:34:07;;;;;;;9.30;2.67;;;;;;;;;;5067317;28;20047;-73
2023/05/19 02:36:34;;;;;;;9.10;2.33;;;;;;;;;;5066667;28;20016;-73
2023/05/19 02:39:03;;;;;;;4.00;2.45;;;;;;;;;;5066092;28;20025;-73
2023/05/19 02:41:29;;;;;;;8.10;2.72;;;;;;;;;;5070809;28;20139;-74
2023/05/19 02:43:55;;;;;;;5.38;2.65;;;;;;;;;;5072091;28;20098;-73
2023/05/19 02:46:21;;;;;;;7.78;2.00;;;;;;;;;;5059519;28;20462;-73
2023/05/19 02:48:47;;;;;;;8.85;2.50;;;;;;;;;;5065471;28;20044;-76
2023/05/19 02:51:13;;;;;;;8.82;2.60;;;;;;;;;;5054997;28;20030;-75
2023/05/19 02:53:39;;;;;;;8.93;3.13;;;;;;;;;;5069457;28;20108;-76
2023/05/19 02:56:05;;;;;;;6.22;2.15;;;;;;;;;;5070827;28;20482;-75
2023/05/19 02:58:31;;;;;;;5.13;2.53;;;;;;;;;;5050509;28;20458;-75
2023/05/19 03:00:57;;;;;;;5.65;2.30;;;;;;;;;;5063350;28;20024;-75
2023/05/19 03:03:23;;;;;;;8.88;2.53;;;;;;;;;;5052208;28;20021;-75
2023/05/19 03:05:49;;;;;;;5.72;2.90;;;;;;;;;;5067913;28;20024;-75
2023/05/19 03:08:15;;;;;;;7.47;2.67;;;;;;;;;;5057757;28;20047;-74
2023/05/19 03:10:41;;;;;;;8.70;2.42;;;;;;;;;;5064152;28;20021;-74
2023/05/19 03:13:07;;;;;;;6.65;2.50;;;;;;;;;;5062667;28;20038;-74
2023/05/19 03:15:33;;;;;;;8.85;2.65;;;;;;;;;;5064841;28;20499;-75
2023/05/19 03:17:59;;;;;;;11.63;2.92;;;;;;;;;;5070123;28;20020;-74
2023/05/19 03:20:25;;;;;;;9.82;2.58;;;;;;;;;;5064053;28;20029;-74
2023/05/19 03:22:51;;;;;;;5.88;2.60;;;;;;;;;;5066650;28;20549;-74
2023/05/19 03:25:17;;;;;;;10.82;2.85;;;;;;;;;;5064913;28;20102;-74
2023/05/19 03:27:43;;;;;;;8.90;3.00;;;;;;;;;;5072484;28;20052;-75
2023/05/19 03:30:09;;;;;;;8.75;2.30;;;;;;;;;;5069250;28;20044;-75
2023/05/19 03:32:36;;;;;;;7.28;2.40;;;;;;;;;;5069456;28;20074;-72
2023/05/19 03:35:03;;;;;;;6.63;2.55;;;;;;;;;;5066426;28;20104;-74
2023/05/19 03:37:29;;;;;;;7.13;2.10;;;;;;;;;;5071915;28;20075;-75
2023/05/19 03:39:56;;;;;;;4.85;2.78;;;;;;;;;;5045173;28;20024;-74
2023/05/19 03:42:22;;;;;;;8.20;2.60;;;;;;;;;;5068269;28;20071;-74
2023/05/19 03:44:48;;;;;;;5.18;2.10;;;;;;;;;;5061118;28;20041;-74
2023/05/19 03:47:14;;;;;;;7.32;2.50;;;;;;;;;;5063230;28;20074;-74
2023/05/19 03:49:40;;;;;;;7.68;2.65;;;;;;;;;;5075094;28;20489;-75
2023/05/19 03:52:06;;;;;;;7.28;3.15;;;;;;;;;;5077447;28;20047;-74
2023/05/19 03:54:32;;;;;;;9.02;2.97;;;;;;;;;;5073563;28;20046;-74
2023/05/19 03:56:58;;;;;;;6.30;2.78;;;;;;;;;;5074093;28;20108;-74
2023/05/19 03:59:24;;;;;;;4.70;2.67;;;;;;;;;;5074018;28;20096;-73
2023/05/19 04:01:51;;;;;;;8.65;3.65;;;;;;;;;;5071300;28;20035;-73
2023/05/19 04:04:17;;;;;;;7.22;3.40;;;;;;;;;;5073888;28;20032;-73
2023/05/19 04:06:44;;;;;;;8.07;3.47;;;;;;;;;;5073584;28;20036;-73
2023/05/19 04:09:12;;;;;;;8.27;2.97;;;;;;;;;;5056044;28;20469;-73
2023/05/19 04:11:38;;;;;;;10.23;3.00;;;;;;;;;;5052540;28;20087;-73
2023/05/19 04:14:04;;;;;;;10.50;3.20;;;;;;;;;;5073591;28;20535;-72
2023/05/19 04:16:30;;;;;;;8.30;3.10;;;;;;;;;;5066055;28;20066;-73
2023/05/19 04:18:56;;;;;;;6.25;3.30;;;;;;;;;;5073672;28;20028;-74
2023/05/19 04:21:22;;;;;;;13.38;3.13;;;;;;;;;;5074177;28;20025;-74
2023/05/19 04:23:48;;;;;;;7.00;2.65;;;;;;;;;;5064212;28;20059;-74
2023/05/19 04:26:15;;;;;;;10.30;3.50;;;;;;;;;;5073991;28;20092;-74
2023/05/19 04:28:43;;;;;;;5.20;2.80;;;;;;;;;;5074173;28;20047;-74
2023/05/19 04:31:09;;;;;;;6.22;2.88;;;;;;;;;;5073891;28;20017;-74
2023/05/19 04:33:38;;;;;;;6.63;3.45;;;;;;;;;;5072283;28;20027;-75
2023/05/19 04:36:07;;;;;;;8.75;3.17;;;;;;;;;;5065174;28;20028;-75
2023/05/19 04:38:39;;;;;;;11.40;2.75;;;;;;;;;;5064254;28;20029;-75
2023/05/19 04:41:08;;;;;;;9.45;3.10;;;;;;;;;;5059720;28;20551;-75
2023/05/19 04:43:35;;;;;;;10.77;3.03;;;;;;;;;;5059972;28;20036;-74
2023/05/19 04:46:04;;;;;;;6.10;2.35;;;;;;;;;;5070259;28;20039;-75
2023/05/19 04:48:30;;;;;;;8.82;2.80;;;;;;;;;;5066312;28;20371;-75
2023/05/19 04:50:57;;;;;;;6.65;3.53;;;;;;;;;;5066219;28;20036;-75
2023/05/19 04:53:24;;;;;;;5.45;2.70;;;;;;;;;;5067934;28;20020;-75
2023/05/19 04:55:50;;;;;;;10.13;2.70;;;;;;;;;;5069793;28;20056;-75
2023/05/19 04:58:17;;;;;;;9.05;2.90;;;;;;;;;;5070447;28;20354;-75
2023/05/19 05:00:43;;;;;;;8.23;3.17;;;;;;;;;;5071851;28;20037;-75
2023/05/19 05:03:09;;;;;;;11.50;2.78;;;;;;;;;;5062962;28;20493;-75
2023/05/19 05:05:35;;;;;;;10.80;3.30;;;;;;;;;;5070004;28;20047;-75
2023/05/19 05:08:02;;;;;;;9.90;3.22;;;;;;;;;;5044637;28;20020;-75
2023/05/19 05:10:27;;;;;;;9.23;3.13;;;;;;;;;;5044218;28;20373;-75
2023/05/19 05:12:54;;;;;;;9.52;3.30;;;;;;;;;;5055050;28;20037;-75
2023/05/19 05:15:20;;;;;;;11.23;3.08;;;;;;;;;;5070832;28;20013;-75
2023/05/19 05:17:46;;;;;;;10.85;2.80;;;;;;;;;;5061003;28;20104;-75
2023/05/19 05:20:13;;;;;;;10.15;3.22;;;;;;;;;;5066868;28;20096;-75
2023/05/19 05:22:39;;;;;;;12.13;3.50;;;;;;;;;;5070906;28;20034;-75
2023/05/19 05:25:06;;;;;;;8.57;2.83;;;;;;;;;;5071990;28;20021;-75
2023/05/19 05:27:32;;;;;;;11.85;3.15;;;;;;;;;;5068647;28;20029;-75
2023/05/19 05:29:57;;;;;;;8.43;3.17;;;;;;;;;;5062677;28;20082;-74
2023/05/19 05:32:24;;;;;;;12.60;3.05;;;;;;;;;;5062762;28;20028;-75
2023/05/19 05:34:50;;;;;;;9.27;2.75;;;;;;;;;;5057529;28;20029;-74
2023/05/19 05:37:16;;;;;;;8.30;3.25;;;;;;;;;;5070177;28;20067;-75
2023/05/19 05:39:42;;;;;;;10.00;2.83;;;;;;;;;;5067488;28;20048;-74
2023/05/19 05:42:08;;;;;;;8.50;3.05;;;;;;;;;;5063588;28;20051;-73
2023/05/19 05:44:34;;;;;;;9.40;2.75;;;;;;;;;;5067142;28;20511;-74
2023/05/19 05:47:01;;;;;;;7.93;3.08;;;;;;;;;;5066626;28;20024;-75
2023/05/19 05:49:27;;;;;;;6.75;2.67;;;;;;;;;;5073715;28;20059;-73
2023/05/19 05:51:53;;;;;;;8.73;3.25;;;;;;;;;;5066316;28;20028;-75
2023/05/19 05:54:21;;;;;;;8.82;3.03;;;;;;;;;;5076727;28;20315;-74
2023/05/19 05:56:47;;;;;;;9.07;3.10;;;;;;;;;;5070290;28;20024;-73
2023/05/19 05:59:14;;;;;;;8.43;2.97;;;;;;;;;;5069795;28;20492;-72
2023/05/19 06:01:40;;;;;;;10.63;2.90;;;;;;;;;;5069747;28;20028;-73
2023/05/19 06:04:07;;;;;;;9.63;2.70;;;;;;;;;;5059207;28;20027;-71
2023/05/19 06:06:34;;;;;;;7.85;3.25;;;;;;;;;;5068273;28;20488;-72
2023/05/19 06:09:00;;;;;;;9.93;3.13;;;;;;;;;;5061626;28;20032;-72
2023/05/19 06:11:27;;;;;;;6.20;2.60;;;;;;;;;;5066393;28;20016;-72
2023/05/19 06:13:53;;;;;;;7.05;3.20;;;;;;;;;;5068329;28;20025;-73
2023/05/19 06:16:19;;;;;;;7.57;3.00;;;;;;;;;;5069886;28;20043;-72
2023/05/19 06:18:45;;;;;;;8.40;2.88;;;;;;;;;;5068484;28;20428;-72
2023/05/19 06:21:12;;;;;;;10.75;3.17;;;;;;;;;;5068926;28;20028;-72
2023/05/19 06:23:38;;;;;;;6.18;3.22;;;;;;;;;;5062530;28;20033;-71
2023/05/19 06:26:04;;;;;;;7.90;3.30;;;;;;;;;;5068455;28;20028;-72
2023/05/19 06:28:30;;;;;;;9.38;3.17;;;;;;;;;;5064276;28;20470;-69
2023/05/19 06:30:57;;;;;;;6.00;2.95;;;;;;;;;;5061845;28;20031;-70
2023/05/19 06:33:23;;;;;;;10.10;3.45;;;;;;;;;;5070874;28;20024;-83
2023/05/19 06:35:49;;;;;;;6.13;3.08;;;;;;;;;;5067983;28;20607;-78
2023/05/19 06:38:15;;;;;;;7.47;3.15;;;;;;;;;;5062451;28;20025;-75
2023/05/19 06:40:41;;;;;;;7.28;3.10;;;;;;;;;;5057006;28;20035;-74
2023/05/19 06:43:07;;;;;;;11.10;3.22;;;;;;;;;;5066913;28;20028;-74
2023/05/19 06:45:33;;;;;;;16.08;3.60;;;;;;;;;;5047202;28;20033;-74
2023/05/19 06:48:00;;;;;;;6.78;2.85;;;;;;;;;;5067715;28;20024;-74
2023/05/19 06:50:26;;;;;;;8.43;3.33;;;;;;;;;;5065258;28;20051;-74
2023/05/19 06:52:52;;;;;;;10.38;3.38;;;;;;;;;;5063928;28;20136;-74
2023/05/19 06:55:18;;;;;;;6.25;3.15;;;;;;;;;;5060340;28;20131;-73
2023/05/19 06:57:44;;;;;;;12.75;3.83;;;;;;;;;;5057463;28;20017;-73
2023/05/19 07:00:11;;;;;;;8.27;3.17;;;;;;;;;;5060287;28;20056;-76
2023/05/19 07:02:37;;;;;;;8.07;2.92;;;;;;;;;;5064608;28;20039;-77
2023/05/19 07:05:03;;;;;;;9.63;3.40;;;;;;;;;;5075033;28;20037;-76
2023/05/19 07:07:29;;;;;;;9.10;3.35;;;;;;;;;;5057381;28;20063;-76
2023/05/19 07:09:57;;;;;;;9.00;3.67;;;;;;;;;;5067498;28;20067;-78
2023/05/19 07:12:25;;;;;;;10.43;3.92;;;;;;;;;;5068088;28;20055;-80
2023/05/19 07:14:51;;;;;;;6.97;3.00;;;;;;;;;;5070171;28;20021;-74
2023/05/19 07:17:17;;;;;;;8.05;3.70;;;;;;;;;;5065687;28;20037;-75
2023/05/19 07:19:43;;;;;;;9.00;3.30;;;;;;;;;;5066013;28;20029;-75
2023/05/19 07:22:09;;;;;;;11.70;3.80;;;;;;;;;;5076226;28;20033;-75
2023/05/19 07:24:35;;;;;;;8.38;3.38;;;;;;;;;;5057733;28;20028;-75
2023/05/19 07:27:01;;;;;;;12.23;3.35;;;;;;;;;;5066053;28;20481;-75
2023/05/19 07:29:27;;;;;;;8.45;3.72;;;;;;;;;;5074121;28;20024;-74
2023/05/19 07:31:56;;;;;;;9.13;3.20;;;;;;;;;;5074541;28;20035;-74
2023/05/19 07:34:22;;;;;;;11.52;3.92;;;;;;;;;;5076422;28;20028;-74
2023/05/19 07:36:48;;;;;;;11.07;3.58;;;;;;;;;;5074894;28;20651;-76
2023/05/19 07:39:15;;;;;;;12.85;4.05;;;;;;;;;;5082196;28;20020;-76
2023/05/19 07:41:40;;;;;;;9.40;3.33;;;;;;;;;;5073601;28;20040;-76
2023/05/19 07:44:07;;;;;;;11.40;3.53;;;;;;;;;;5072066;28;20025;-71
2023/05/19 07:46:33;;;;;;;11.70;3.30;;;;;;;;;;5069239;28;20464;-76
2023/05/19 07:48:59;;;;;;;10.23;3.33;;;;;;;;;;5060570;28;20077;-74
2023/05/19 07:51:28;;;;;;;7.07;3.08;;;;;;;;;;5053123;28;20071;-75
2023/05/19 07:53:57;;;;;;;9.52;3.72;;;;;;;;;;5060037;28;20051;-73
2023/05/19 07:56:24;;;;;;;8.82;3.30;;;;;;;;;;5076777;28;20017;-73
2023/05/19 07:58:50;;;;;;;9.05;3.05;;;;;;;;;;5057321;28;20385;-72
2023/05/19 08:01:17;;;;;;;12.38;3.70;;;;;;;;;;5071077;28;20071;-71
2023/05/19 08:03:46;;;;;;;12.63;3.53;;;;;;;;;;5071867;28;20102;-72
2023/05/19 08:06:13;;;;;;;10.57;3.20;;;;;;;;;;5062492;28;20029;-72
2023/05/19 08:08:41;;;;;;;7.55;3.47;;;;;;;;;;5074085;28;20016;-72
2023/05/19 08:11:07;;;;;;;9.38;3.90;;;;;;;;;;5076289;28;20021;-71
2023/05/19 08:13:34;;;;;;;13.10;3.78;;;;;;;;;;5073149;28;20082;-71
2023/05/19 08:16:02;;;;;;;6.75;3.20;;;;;;;;;;5054945;28;20028;-71
2023/05/19 08:18:29;;;;;;;14.13;4.90;;;;;;;;;;5069760;28;20025;-71
2023/05/19 08:20:57;;;;;;;10.48;4.15;;;;;;;;;;5074219;28;20025;-71
2023/05/19 08:23:24;;;;;;;10.38;3.10;;;;;;;;;;5072644;28;20473;-72
2023/05/19 08:25:51;;;;;;;7.93;3.00;;;;;;;;;;5064342;28;20024;-73
2023/05/19 08:28:27;;;;;;;8.05;3.00;;;;;;;;;;5072127;28;20036;-71
2023/05/19 08:30:54;;;;;;;10.65;3.35;;;;;;;;;;5069933;28;20024;-71
2023/05/19 08:33:21;;;;;;;7.10;3.17;;;;;;;;;;5068757;28;20060;-73
2023/05/19 08:35:48;;;;;;;9.38;3.20;;;;;;;;;;5045807;28;20064;-71
2023/05/19 08:38:15;;;;;;;7.82;2.90;;;;;;;;;;5063515;28;20488;-72
2023/05/19 08:40:42;;;;;;;8.93;3.67;;;;;;;;;;5065601;28;20417;-72
2023/05/19 08:43:10;;;;;;;7.53;3.10;;;;;;;;;;5068747;28;20035;-72
2023/05/19 08:45:37;;;;;;;5.82;3.03;;;;;;;;;;5060276;28;20028;-72
2023/05/19 08:48:05;;;;;;;9.20;3.33;;;;;;;;;;5065620;28;20052;-72
2023/05/19 08:50:33;;;;;;;9.93;3.08;;;;;;;;;;5068962;28;20047;-72
2023/05/19 08:53:12;;;;;;;8.90;3.58;;;;;;;;;;5066792;28;20032;-72
2023/05/19 08:55:47;;;;;;;8.93;3.65;;;;;;;;;;5062728;28;20021;-72
2023/05/19 08:58:15;;;;;;;10.05;3.60;;;;;;;;;;5061569;28;20052;-72
2023/05/19 09:00:42;;;;;;;12.75;3.60;;;;;;;;;;5054405;28;20070;-72
2023/05/19 09:03:08;;;;;;;6.90;2.92;;;;;;;;;;5056654;28;20490;-72
2023/05/19 09:05:35;;;;;;;10.70;3.75;;;;;;;;;;5070635;28;20037;-72
2023/05/19 09:08:03;;;;;;;8.98;3.50;;;;;;;;;;5072198;28;20047;-72
2023/05/19 09:10:29;;;;;;;8.88;3.50;;;;;;;;;;5058286;28;20045;-73
2023/05/19 09:12:55;;;;;;;10.13;3.42;;;;;;;;;;5059893;28;20028;-71
2023/05/19 09:15:26;;;;;;;9.43;3.17;;;15.50;99.90;;;;;;5066378;28;20462;-72
2023/05/19 09:18:02;;;;;;;9.45;3.45;;;;;;;;;;5071158;28;20371;-72
2023/05/19 09:20:30;;;;;;;6.35;3.45;;;;;;;;;;5066628;28;20074;-72
2023/05/19 09:22:56;;;;;;;11.25;3.40;;;15.50;99.90;;;;;;5060914;28;20044;-71
2023/05/19 09:25:22;;;;;;;9.00;3.20;;;15.50;99.90;;;;;;5072687;28;20028;-73
2023/05/19 09:27:49;;;;;;;12.68;3.70;;;15.50;99.90;;;;;;5061354;28;20031;-72
2023/05/19 09:30:18;;;;;;;8.50;3.47;;;;;;;;;;5072900;28;20100;-73
2023/05/19 09:32:44;;;;;;;10.82;3.55;;;;;;;;;;5069442;28;20025;-73
2023/05/19 09:35:11;;;;;;;11.60;3.80;;;15.60;99.90;;;;;;5062187;28;20017;-72
2023/05/19 09:37:40;;;;;;;9.98;3.05;;;15.60;99.90;;;;;;5059913;28;20025;-72
2023/05/19 09:40:09;;;;;;;13.10;3.72;;;;;;;;;;5068787;28;20021;-72
2023/05/19 09:42:40;;;;;;;7.65;3.05;;;;;;;;;;5060583;28;20028;-72
2023/05/19 09:45:06;;;;;;;;;;;;;;;;;;5065430;28;20039;-72
2023/05/19 09:47:37;;;;;;;14.10;3.85;;;;;;;;;;5066026;28;19989;-73
2023/05/19 09:50:04;;;;;;;12.13;3.85;;;;;;;;;;5073949;28;20052;-72
2023/05/19 09:52:30;;;;;;;6.28;2.60;;;;;;;;;;5076047;28;20372;-75
2023/05/19 09:54:56;;;;;;;6.93;3.05;;;15.50;99.90;;;;;;5070625;28;20024;-72
2023/05/19 09:57:28;;;;;;;8.25;3.10;;;15.70;99.90;;;;;;5071898;28;20025;-72
2023/05/19 09:59:55;;;;;;;8.90;3.55;;;15.90;99.90;;;;;;5070090;28;20060;-71
2023/05/19 10:02:24;;;;;;;6.88;3.13;;;16.10;99.90;;;;;;5071961;28;20043;-73
2023/05/19 10:04:51;;;;;;;10.82;3.28;;;16.20;99.90;;;;;;5063733;28;20726;-72
2023/05/19 10:07:18;;;;;;;8.30;3.30;;;16.30;99.90;;;;;;5084894;28;20029;-74
2023/05/19 10:09:44;;;;;;;9.70;2.92;;;16.30;99.90;;;;;;5055611;28;20473;-72
2023/05/19 10:12:11;;;;;;;6.80;2.92;;;;;;;;;;5074683;28;20042;-72
2023/05/19 10:14:38;;;;;;;6.30;3.40;;;;;;;;;;5070489;28;20032;-70
2023/05/19 10:17:06;;;;;;;7.38;3.00;;;;;;;;;;5068472;28;20036;-74
2023/05/19 10:19:33;;;;;;;7.40;3.05;;;;;;;;;;5064988;28;20079;-74
2023/05/19 10:22:00;;;;;;;9.32;3.20;;;;;;;;;;5071024;28;20059;-74
2023/05/19 10:24:27;;;;;;;7.45;2.97;;;;;;;;;;5052109;28;20029;-71
2023/05/19 10:27:05;;;;;;;11.23;3.55;;;;;;;;;;5065531;28;20036;-71
2023/05/19 10:29:35;;;;;;;6.95;2.90;;;;;;;;;;5067590;28;20469;-71
2023/05/19 10:32:03;;;;;;;14.20;3.77;;;;;;;;;;5050661;28;21084;-70
2023/05/19 10:34:33;;;;;;;12.75;3.28;;;;;;;;;;5065476;28;20054;-71
2023/05/19 10:37:23;;;;;;;10.80;3.05;;;;;;;;;;5062416;28;20589;-69
2023/05/19 10:39:51;;;;;;;7.93;3.00;;;;;;;;;;5060676;28;20024;-69
2023/05/19 10:42:30;;;;;;;5.07;2.55;;;;;;;;;;5061369;28;20052;-67
2023/05/19 10:45:05;;;;;;;8.45;3.15;;;;;;;;;;5065536;28;20041;-68
2023/05/19 10:47:33;;;;;;;7.72;3.20;;;;;;;;;;5056723;28;20020;-69
2023/05/19 10:50:05;;;;;;;7.97;3.20;;;;;;;;;;5043909;28;20115;-68
2023/05/19 10:52:37;;;;;;;11.00;3.20;;;;;;;;;;5046957;28;20103;-68
2023/05/19 10:55:04;;;;;;;8.27;3.00;;;;;;;;;;5039521;28;20033;-68
2023/05/19 10:57:32;;;;;;;6.78;3.17;;;;;;;;;;5042426;28;20029;-69
2023/05/19 10:59:59;;;;;;;6.43;3.53;;;;;;;;;;5050830;28;20031;-68
2023/05/19 11:02:40;;;;;;;7.88;3.13;;;;;;;;;;5050754;28;20025;-69
2023/05/19 11:05:08;;;;;;;;;;;;;;;;;;5043000;28;20037;-68
2023/05/19 11:07:35;;;;;;;10.40;3.13;;;;;;;;;;5058709;28;19936;-69
2023/05/19 11:10:06;;;;;;;7.75;3.28;;;;;;;;;;5052160;28;20021;-68
2023/05/19 11:12:43;;;;;;;7.85;3.10;;;;;;;;;;5050091;28;20028;-70
2023/05/19 11:15:14;;;;;;;7.43;3.25;;;;;;;;;;5051092;28;20028;-69
2023/05/19 11:17:41;;;;;;;8.20;3.25;;;;;;;;;;5049997;28;20017;-69
2023/05/19 11:20:10;;;;;;;8.43;3.10;;;;;;;;;;5036763;28;20112;-69
2023/05/19 11:22:37;;;;;;;10.77;2.85;;;;;;;;;;5033964;28;20029;-69
2023/05/19 11:25:06;;;;;;;9.20;3.30;;;;;;;;;;5042440;28;20029;-68
2023/05/19 11:27:37;;;;;;;8.70;3.38;;;;;;;;;;5040459;28;20032;-69
2023/05/19 11:30:08;;;;;;;8.02;3.15;;;;;;;;;;5035875;28;20090;-68
2023/05/19 11:32:41;;;;;;;10.63;3.25;;;;;;;;;;5041604;28;20052;-69
2023/05/19 11:35:08;;;;;;;8.15;3.50;;;;;;;;;;5046841;28;20037;-68
2023/05/19 11:37:36;;;;;;;7.63;3.05;;;;;;;;;;5044292;28;20044;-69
2023/05/19 11:40:07;;;;;;;8.13;3.38;;;;;;;;;;5046900;28;20458;-69
2023/05/19 11:42:35;;;;;;;7.28;3.10;;;;;;;;;;5042162;28;20021;-69
2023/05/19 11:45:03;;;;;;;8.35;3.10;;;;;;;;;;5037511;28;20042;-69
2023/05/19 11:47:32;;;;;;;9.27;3.10;;;;;;;;;;5045493;28;20347;-69
2023/05/19 11:49:59;;;;;;;8.32;2.70;;;;;;;;;;5074727;28;20127;-69
2023/05/19 11:52:27;;;;;;;11.05;3.28;;;;;;;;;;5076443;28;20021;-70
2023/05/19 11:54:55;;;;;;;11.65;3.70;;;;;;;;;;5078429;28;20021;-69
2023/05/19 11:57:22;;;;;;;7.22;2.92;;;;;;;;;;5078692;28;20023;-68
2023/05/19 11:59:52;;;;;;;9.20;2.72;;;;;;;;;;5068899;28;20024;-68
2023/05/19 12:02:20;;;;;;;12.47;3.37;;;;;;;;;;5074915;28;20100;-68
2023/05/19 12:04:50;;;;;;;12.45;3.25;;;;;;;;;;5076285;28;20445;-68
2023/05/19 12:07:17;;;;;;;8.27;3.45;;;;;;;;;;5074581;28;20093;-68
2023/05/19 12:09:45;;;;;;;11.13;3.72;;;;;;;;;;5072761;28;20029;-69
2023/05/19 12:12:17;;;;;;;11.13;3.33;;;;;;;;;;5073994;28;20020;-69
2023/05/19 12:14:44;;;;;;;9.07;3.15;;;;;;;;;;5059706;28;20561;-69
2023/05/19 12:17:15;;;;;;;7.53;3.53;;;;;;;;;;5073081;28;20443;-70
2023/05/19 12:19:46;;;;;;;7.70;3.60;;;;;;;;;;5075237;28;20169;-69
2023/05/19 12:22:13;;;;;;;10.00;3.33;;;;;;;;;;5073786;28;20485;-68
2023/05/19 12:24:41;;;;;;;9.20;3.08;;;;;;;;;;5072138;28;20070;-69
2023/05/19 12:27:14;;;;;;;8.57;3.00;;;;;;;;;;5071957;28;20461;-69
2023/05/19 12:29:41;;;;;;;12.55;3.20;;;;;;;;;;5072657;28;20373;-69
2023/05/19 12:32:08;;;;;;;6.35;2.95;;;;;;;;;;5068742;28;20157;-67
2023/05/19 12:34:41;;;;;;;7.97;3.88;;;;;;;;;;5066894;28;20056;-70
2023/05/19 12:37:10;;;;;;;8.80;3.40;;;;;;;;;;5068778;28;20481;-72
2023/05/19 12:39:38;;;;;;;8.88;3.67;;;;;;;;;;5059949;28;20041;-71
2023/05/19 12:42:07;;;;;;;10.38;3.58;;;;;;;;;;5063581;28;20017;-71
2023/05/19 12:44:51;;;;;;;8.32;3.10;;;;;;;;;;5065852;28;20025;-70
2023/05/19 12:47:18;;;;;;;9.63;3.38;;;;;;;;;;5052359;28;20424;-73
2023/05/19 12:49:57;;;;;;;8.90;3.53;;;;;;;;;;5062376;28;20060;-75
2023/05/19 12:52:26;;;;;;;15.27;3.85;;;;;;;;;;5068857;28;20127;-74
2023/05/19 12:55:04;;;;;;;8.13;3.50;;;;;;;;;;5069791;28;20036;-74
2023/05/19 12:57:31;;;;;;;9.55;3.45;;;;;;;;;;5067748;28;20028;-73
2023/05/19 13:00:30;;;;;;;9.07;3.30;;;;;;;;;;5071379;28;20081;-74
2023/05/19 13:03:03;;;;;;;11.52;3.88;;;;;;;;;;5052269;28;20037;-75
2023/05/19 13:05:32;;;;;;;8.82;3.53;;;;;;;;;;5071746;28;20116;-73
2023/05/19 13:07:59;;;;;;;11.23;3.40;;;;;;;;;;5070956;28;20481;-74
2023/05/19 13:10:27;;;;;;;9.05;3.22;;;;;;;;;;5068320;28;20103;-74
2023/05/19 13:12:55;;;;;;;9.52;3.40;;;;;;;;;;5067526;28;20020;-72
2023/05/19 13:15:25;;;;;;;9.77;3.25;;;;;;;;;;5041547;28;20052;-78
2023/05/19 13:17:53;;;;;;;7.43;3.80;;;;;;;;;;5058589;28;20074;-77
2023/05/19 13:20:20;;;;;;;6.18;3.05;;;;;;;;;;5076903;28;20040;-77
2023/05/19 13:22:48;;;;;;;11.13;3.03;;;;;;;;;;5056823;28;20040;-80
2023/05/19 13:25:15;;;;;;;10.20;3.53;;;;;;;;;;5056352;28;20040;-77
2023/05/19 13:27:43;;;;;;;7.07;3.35;;;;;;;;;;5060541;28;20017;-73
2023/05/19 13:30:10;;;;;;;6.05;3.20;;;;;;;;;;5061685;28;20090;-79
2023/05/19 13:32:37;;;;;;;5.90;3.28;;;;;;;;;;5065345;28;20048;-76
2023/05/19 13:35:04;;;;;;;8.57;3.65;;;;;;;;;;5076346;28;20142;-77
2023/05/19 13:37:32;;;;;;;10.65;3.72;;;;;;;;;;5061686;28;20021;-81
2023/05/19 13:39:59;;;;;;;10.45;3.50;;;;;;;;;;5075133;28;20039;-73
2023/05/19 13:42:26;;;;;;;11.88;3.65;;;;;;;;;;5062241;28;20083;-73
2023/05/19 13:44:56;;;;;;;13.70;3.63;;;;;;;;;;5054504;28;20033;-73
2023/05/19 13:47:24;;;;;;;8.07;3.72;;;;;;;;;;5065564;28;20071;-70
2023/05/19 13:49:51;;;;;;;9.63;3.38;;;;;;;;;;5059614;28;20048;-73
2023/05/19 13:52:19;;;;;;;12.07;3.58;;;;;;;;;;5069486;28;20048;-73
2023/05/19 13:54:47;;;;;;;8.00;3.63;;;;;;;;;;5068163;28;20099;-75
2023/05/19 13:57:14;;;;;;;8.00;3.35;;;;;;;;;;5051203;28;20384;-76
2023/05/19 13:59:41;;;;;;;12.23;3.80;;;;;;;;;;5064936;28;20480;-79
2023/05/19 14:02:09;;;;;;;9.68;3.47;;;;;;;;;;5080550;28;20029;-74
2023/05/19 14:04:39;;;;;;;7.38;3.40;;;;;;;;;;5071252;28;20032;-75
2023/05/19 14:07:06;;;;;;;;;;;;;;;;;;5073736;28;20416;-77
2023/05/19 14:09:33;;;;;;;6.60;2.90;;;;;;;;;;5065212;28;19924;-74
2023/05/19 14:12:00;;;;;;;9.40;3.28;;;;;;;;;;5062937;28;20461;-72
2023/05/19 14:14:27;;;;;;;13.23;3.70;;;;;;;;;;5084933;28;20028;-74
2023/05/19 14:16:55;;;;;;;11.43;3.45;;;;;;;;;;5084555;28;20020;-74
2023/05/19 14:19:28;;;;;;;9.10;3.55;;;;;;;;;;5094315;28;20020;-75
2023/05/19 14:21:55;;;;;;;5.05;3.30;;;;;;;;;;5079370;28;20084;-72
2023/05/19 14:24:23;;;;;;;6.50;3.38;;;;;;;;;;5070210;28;20473;-73